createdAt,value
2022-08-07T00:02:40.398Z,16.93
2022-08-07T00:07:58.232Z,16.87
2022-08-07T00:13:23.457Z,16.76
2022-08-07T00:18:31.625Z,16.56
2022-08-07T00:23:39.541Z,16.63
2022-08-07T00:28:45.923Z,16.50
2022-08-07T00:34:01.180Z,16.45
2022-08-07T00:39:05.583Z,16.34
2022-08-07T00:44:09.931Z,16.30
2022-08-07T00:49:24.761Z,16.19
2022-08-07T00:54:40.632Z,16.03
2022-08-07T00:59:45.410Z,15.93
2022-08-07T01:04:58.327Z,15.80
2022-08-07T01:10:11.027Z,15.71
2022-08-07T01:15:17.789Z,15.51
2022-08-07T01:20:59.241Z,15.38
2022-08-07T01:26:08.315Z,15.36
2022-08-07T01:31:19.119Z,15.21
2022-08-07T01:36:33.601Z,15.12
2022-08-07T01:42:01.555Z,15.04
2022-08-07T01:47:14.371Z,14.92
2022-08-07T01:52:54.032Z,14.72
2022-08-07T01:58:06.505Z,14.71
2022-08-07T02:03:42.671Z,14.55
2022-08-07T02:08:56.594Z,14.46
2022-08-07T02:14:08.772Z,14.43
2022-08-07T02:20:03.611Z,14.45
2022-08-07T02:24:45.581Z,14.32
2022-08-07T02:29:58.518Z,14.23
2022-08-07T02:35:15.195Z,14.23
2022-08-07T02:40:30.237Z,14.14
2022-08-07T02:46:00.694Z,13.99
2022-08-07T02:51:42.768Z,13.94
2022-08-07T02:56:43.380Z,13.94
2022-08-07T03:01:52.158Z,13.85
2022-08-07T03:07:07.046Z,13.70
2022-08-07T03:12:22.463Z,13.63
2022-08-07T03:17:53.774Z,13.54
2022-08-07T03:23:00.934Z,13.42
2022-08-07T03:28:38.004Z,13.48
2022-08-07T03:33:40.204Z,13.50
2022-08-07T03:38:49.976Z,13.38
2022-08-07T03:43:57.151Z,13.35
2022-08-07T03:49:09.619Z,13.31
2022-08-07T03:54:35.431Z,13.20
2022-08-07T04:00:01.833Z,13.21
2022-08-07T04:05:10.651Z,13.22
2022-08-07T04:10:19.743Z,13.09
2022-08-07T04:15:25.680Z,13.07
2022-08-07T04:20:35.229Z,13.09
2022-08-07T04:25:42.294Z,13.08
2022-08-07T04:30:56.918Z,13.06
2022-08-07T04:36:11.244Z,13.07
2022-08-07T04:41:18.999Z,13.07
2022-08-07T04:46:59.723Z,13.09
2022-08-07T04:52:15.497Z,13.17
2022-08-07T04:58:14.030Z,13.37
2022-08-07T05:03:16.730Z,13.51
2022-08-07T05:09:00.047Z,13.81
2022-08-07T05:14:53.189Z,14.02
2022-08-07T05:19:46.120Z,14.20
2022-08-07T05:24:57.191Z,14.35
2022-08-07T05:30:05.604Z,14.53
2022-08-07T05:35:13.021Z,14.60
2022-08-07T05:40:20.814Z,14.87
2022-08-07T05:45:46.988Z,15.13
2022-08-07T05:50:53.921Z,15.16
2022-08-07T05:56:05.480Z,15.40
2022-08-07T06:01:16.827Z,15.81
2022-08-07T06:06:29.466Z,16.09
2022-08-07T06:11:36.646Z,16.39
2022-08-07T06:16:49.945Z,16.59
2022-08-07T06:22:16.781Z,16.78
2022-08-07T06:27:44.390Z,17.15
2022-08-07T06:32:50.457Z,17.29
2022-08-07T06:37:58.061Z,17.50
2022-08-07T06:43:21.247Z,17.88
2022-08-07T06:48:44.978Z,18.57
2022-08-07T06:55:29.550Z,19.52
2022-08-07T07:00:14.658Z,20.96
2022-08-07T07:05:03.960Z,21.71
2022-08-07T07:10:10.017Z,21.87
2022-08-07T07:15:26.365Z,22.15
2022-08-07T07:20:44.392Z,22.75
2022-08-07T07:26:34.684Z,23.17
2022-08-07T07:31:30.417Z,23.60
2022-08-07T07:36:52.659Z,23.78
2022-08-07T07:42:13.496Z,24.34
2022-08-07T07:47:26.020Z,24.22
2022-08-07T07:52:35.232Z,25.29
2022-08-07T07:57:53.412Z,25.19
2022-08-07T08:03:08.021Z,25.23
2022-08-07T08:08:32.215Z,25.86
2022-08-07T08:13:53.867Z,26.60
2022-08-07T08:19:17.402Z,27.64
2022-08-07T08:25:04.533Z,27.98
2022-08-07T08:30:17.555Z,27.89
2022-08-07T08:35:39.031Z,28.70
2022-08-07T08:40:57.016Z,29.11
2022-08-07T08:46:11.538Z,29.61
2022-08-07T08:51:49.862Z,29.49
2022-08-07T08:56:55.870Z,31.26
2022-08-07T09:02:34.733Z,32.19
2022-08-07T09:07:57.754Z,32.84
2022-08-07T09:13:15.037Z,32.73
2022-08-07T09:18:41.488Z,33.49
2022-08-07T09:24:31.269Z,34.22
2022-08-07T09:30:03.416Z,34.71
2022-08-07T09:36:04.588Z,35.22
2022-08-07T09:41:15.900Z,36.03
2022-08-07T09:47:51.544Z,36.05
2022-08-07T09:52:34.141Z,37.16
2022-08-07T09:58:42.159Z,36.92
2022-08-07T10:04:27.986Z,37.67
2022-08-07T10:10:21.518Z,38.31
2022-08-07T10:16:02.801Z,39.24
2022-08-07T10:22:14.235Z,37.10
2022-08-07T10:27:11.986Z,37.76
2022-08-07T10:32:59.884Z,38.66
2022-08-07T10:38:48.893Z,38.52
2022-08-07T10:44:08.067Z,39.86
2022-08-07T10:49:24.685Z,41.24
2022-08-07T10:55:01.617Z,41.21
2022-08-07T11:00:36.441Z,40.72
2022-08-07T11:05:55.581Z,40.31
2022-08-07T11:11:09.047Z,42.41
2022-08-07T11:16:25.594Z,43.46
2022-08-07T11:21:49.110Z,44.49
2022-08-07T11:27:04.504Z,44.55
2022-08-07T11:32:25.739Z,44.20
2022-08-07T11:38:12.881Z,42.63
2022-08-07T11:43:29.809Z,42.73
2022-08-07T11:49:28.708Z,39.38
2022-08-07T11:55:03.291Z,40.05
2022-08-07T12:00:28.356Z,40.89
2022-08-07T12:05:50.538Z,40.50
2022-08-07T12:11:20.115Z,37.15
2022-08-07T12:16:37.190Z,37.33
2022-08-07T12:21:55.773Z,36.82
2022-08-07T12:27:28.010Z,36.15
2022-08-07T12:32:59.703Z,35.64
2022-08-07T12:38:10.233Z,39.50
2022-08-07T12:44:03.401Z,43.42
2022-08-07T12:49:10.014Z,42.72
2022-08-07T12:54:41.252Z,45.12
2022-08-07T12:59:55.699Z,46.03
2022-08-07T13:06:03.652Z,42.94
2022-08-07T13:11:08.971Z,39.09
2022-08-07T13:16:32.229Z,42.76
2022-08-07T13:21:58.913Z,43.86
2022-08-07T13:27:20.772Z,41.93
2022-08-07T13:32:37.524Z,40.04
2022-08-07T13:37:58.533Z,40.84
2022-08-07T13:43:12.795Z,41.58
2022-08-07T13:48:33.910Z,37.48
2022-08-07T13:54:00.422Z,40.08
2022-08-07T13:59:13.056Z,37.69
2022-08-07T14:04:24.425Z,37.12
2022-08-07T14:10:01.950Z,35.96
2022-08-07T14:15:10.375Z,34.81
2022-08-07T14:20:40.244Z,33.06
2022-08-07T14:25:55.538Z,33.10
2022-08-07T14:31:01.738Z,37.49
2022-08-07T14:36:12.954Z,39.23
2022-08-07T14:41:33.885Z,43.18
2022-08-07T14:47:08.505Z,46.07
2022-08-07T14:52:27.995Z,42.84
2022-08-07T14:57:54.771Z,42.58
2022-08-07T15:03:16.659Z,42.10
2022-08-07T15:08:32.381Z,42.21
2022-08-07T15:13:46.876Z,38.45
2022-08-07T15:19:00.697Z,39.81
2022-08-07T15:25:13.965Z,40.74
2022-08-07T15:30:04.602Z,36.86
2022-08-07T15:41:00.150Z,35.93
2022-08-07T15:46:34.276Z,36.25
2022-08-07T15:57:05.755Z,32.03
2022-08-07T16:02:15.538Z,30.65
2022-08-07T16:08:32.271Z,29.25
2022-08-07T16:13:05.751Z,29.27
2022-08-07T16:18:50.764Z,28.85
2022-08-07T16:24:03.671Z,28.79
2022-08-07T16:30:11.334Z,29.00
2022-08-07T16:35:56.506Z,28.97
2022-08-07T16:41:12.495Z,31.70
2022-08-07T16:47:18.317Z,36.53
2022-08-07T16:52:55.987Z,37.42
2022-08-07T16:58:08.201Z,35.80
2022-08-07T17:03:57.791Z,33.30
2022-08-07T17:09:10.826Z,33.92
2022-08-07T17:14:32.097Z,33.09
2022-08-07T17:20:00.614Z,31.16
2022-08-07T17:25:17.674Z,30.15
2022-08-07T17:30:28.478Z,29.34
2022-08-07T17:35:55.246Z,28.33
2022-08-07T17:41:12.362Z,27.44
2022-08-07T17:46:43.157Z,27.18
2022-08-07T17:52:10.421Z,26.39
2022-08-07T17:57:32.049Z,26.01
2022-08-07T18:03:00.306Z,25.68
2022-08-07T18:08:24.404Z,25.35
2022-08-07T18:13:48.292Z,25.50
2022-08-07T18:21:04.029Z,25.19
2022-08-07T18:24:34.504Z,25.11
2022-08-07T18:30:07.660Z,24.73
2022-08-07T18:35:27.809Z,24.54
2022-08-07T18:41:05.125Z,24.27
2022-08-07T18:46:26.887Z,23.88
2022-08-07T18:52:33.896Z,23.53
2022-08-07T18:57:30.699Z,23.22
2022-08-07T19:02:46.052Z,23.01
2022-08-07T19:08:05.391Z,22.82
2022-08-07T19:13:24.342Z,22.63
2022-08-07T19:18:49.371Z,22.47
2022-08-07T19:24:01.108Z,22.30
2022-08-07T19:30:57.802Z,22.09
2022-08-07T19:34:34.221Z,21.90
2022-08-07T19:39:57.791Z,21.86
2022-08-07T19:46:07.232Z,21.77
2022-08-07T19:50:45.714Z,21.73
2022-08-07T19:55:58.560Z,21.72
2022-08-07T20:01:09.635Z,21.67
2022-08-07T20:06:30.543Z,21.71
2022-08-07T20:12:22.100Z,21.82
2022-08-07T20:17:11.819Z,21.93
2022-08-07T20:22:28.993Z,21.88
2022-08-07T20:27:46.304Z,21.75
2022-08-07T20:33:00.187Z,21.58
2022-08-07T20:38:07.972Z,21.50
2022-08-07T20:43:14.704Z,21.34
2022-08-07T20:48:30.778Z,21.11
2022-08-07T20:54:04.851Z,20.84
2022-08-07T21:00:04.439Z,20.66
2022-08-07T21:04:34.645Z,20.49
2022-08-07T21:09:52.529Z,20.36
2022-08-07T21:15:10.475Z,20.14
2022-08-07T21:20:30.100Z,19.99
2022-08-07T21:25:57.002Z,19.87
2022-08-07T21:31:15.138Z,19.78
2022-08-07T21:36:32.729Z,19.68
2022-08-07T21:41:52.321Z,19.58
2022-08-07T21:47:17.363Z,19.49
2022-08-07T21:52:37.255Z,19.49
2022-08-07T21:58:00.111Z,19.49
2022-08-07T22:03:17.080Z,19.47
2022-08-07T22:08:34.971Z,19.41
2022-08-07T22:13:52.298Z,19.37
2022-08-07T22:19:23.617Z,19.30
2022-08-07T22:24:47.171Z,19.29
2022-08-07T22:30:02.065Z,19.15
2022-08-07T22:35:11.197Z,19.04
2022-08-07T22:40:25.595Z,18.83
2022-08-07T22:46:22.003Z,18.72
2022-08-07T22:52:00.662Z,18.58
2022-08-07T22:57:34.180Z,18.38
2022-08-07T23:03:31.384Z,18.26
2022-08-07T23:10:04.785Z,18.12
2022-08-07T23:15:10.091Z,18.05
2022-08-07T23:20:52.755Z,18.13
2022-08-07T23:26:19.451Z,18.19
2022-08-07T23:34:19.695Z,18.11
2022-08-07T23:38:00.528Z,18.01
2022-08-07T23:43:37.842Z,17.83
2022-08-07T23:49:50.584Z,17.65
2022-08-07T23:55:06.060Z,17.49
